Texanna, Oklahoma
Current Conditions -  °F | °C
As of 5:53 AM on Saturday 20 Dec 2014 (Local Time) from KMKO Reporting Station
Haze Haze  
Wind Chill: 37°   Ceiling: 3200
Heat Index: 40°   Visibility: 6mi
Dew Point: 37°   Wind: 5mph
Humidity: 89%   Direction: 340°NNW
Pressure: 30.26"   Gusts: NA
Location:  35.4498°N, 95.4869°W
Report Text: KMKO 201153Z AUTO 34004KT 6SM BR OVC032 04/03 A3026 RMK AO2 SLP247 T00440028 10044 20044 53007
Loading
Personal Weather Stations






























Interactive Weather Map New forecast layout! Learn more

10-Day Weather Forecast

Advertisements
Track Severe Weather on mobile